sensor_id;sensor_type;location;lat;lon;timestamp;temperature;humidity
3275;DHT22;1649;53.672;10.064;2023-08-31T00:00:44;14.10;99.90
3275;DHT22;1649;53.672;10.064;2023-08-31T00:03:11;14.00;99.90
3275;DHT22;1649;53.672;10.064;2023-08-31T00:05:40;14.00;99.90
3275;DHT22;1649;53.672;10.064;2023-08-31T00:08:06;14.00;99.90
3275;DHT22;1649;53.672;10.064;2023-08-31T00:10:33;14.10;99.90
3275;DHT22;1649;53.672;10.064;2023-08-31T00:12:58;14.10;99.90
3275;DHT22;1649;53.672;10.064;2023-08-31T00:15:24;14.10;99.90
3275;DHT22;1649;53.672;10.064;2023-08-31T00:17:49;14.20;99.90
3275;DHT22;1649;53.672;10.064;2023-08-31T00:20:15;14.20;99.90
3275;DHT22;1649;53.672;10.064;2023-08-31T00:22:41;14.20;99.90
3275;DHT22;1649;53.672;10.064;2023-08-31T00:25:07;14.10;99.90
3275;DHT22;1649;53.672;10.064;2023-08-31T00:27:34;14.20;99.90
3275;DHT22;1649;53.672;10.064;2023-08-31T00:29:59;14.20;99.90
3275;DHT22;1649;53.672;10.064;2023-08-31T00:32:25;14.10;99.90
3275;DHT22;1649;53.672;10.064;2023-08-31T00:34:50;14.10;99.90
3275;DHT22;1649;53.672;10.064;2023-08-31T00:37:16;14.10;99.90
3275;DHT22;1649;53.672;10.064;2023-08-31T00:39:42;14.10;99.90
3275;DHT22;1649;53.672;10.064;2023-08-31T00:42:09;14.10;99.90
3275;DHT22;1649;53.672;10.064;2023-08-31T00:44:35;14.10;99.90
3275;DHT22;1649;53.672;10.064;2023-08-31T00:47:01;14.10;99.90
3275;DHT22;1649;53.672;10.064;2023-08-31T00:49:27;14.10;99.90
3275;DHT22;1649;53.672;10.064;2023-08-31T00:51:53;14.10;99.90
3275;DHT22;1649;53.672;10.064;2023-08-31T00:54:19;14.10;99.90
3275;DHT22;1649;53.672;10.064;2023-08-31T00:56:46;14.00;99.90
3275;DHT22;1649;53.672;10.064;2023-08-31T00:59:12;14.00;99.90
3275;DHT22;1649;53.672;10.064;2023-08-31T01:01:43;13.90;99.90
3275;DHT22;1649;53.672;10.064;2023-08-31T01:04:29;13.90;99.90
3275;DHT22;1649;53.672;10.064;2023-08-31T01:07:19;13.90;99.90
3275;DHT22;1649;53.672;10.064;2023-08-31T01:10:04;13.80;99.90
3275;DHT22;1649;53.672;10.064;2023-08-31T01:12:39;13.80;99.90
3275;DHT22;1649;53.672;10.064;2023-08-31T01:15:10;13.70;99.90
3275;DHT22;1649;53.672;10.064;2023-08-31T01:17:42;13.60;99.90
3275;DHT22;1649;53.672;10.064;2023-08-31T01:20:10;13.60;99.90
3275;DHT22;1649;53.672;10.064;2023-08-31T01:23:04;13.50;99.90
3275;DHT22;1649;53.672;10.064;2023-08-31T01:25:32;13.50;99.90
3275;DHT22;1649;53.672;10.064;2023-08-31T01:27:59;13.50;99.90
3275;DHT22;1649;53.672;10.064;2023-08-31T01:30:25;13.50;99.90
3275;DHT22;1649;53.672;10.064;2023-08-31T01:32:54;13.50;99.90
3275;DHT22;1649;53.672;10.064;2023-08-31T01:35:19;13.40;99.90
3275;DHT22;1649;53.672;10.064;2023-08-31T01:37:53;13.40;99.90
3275;DHT22;1649;53.672;10.064;2023-08-31T01:40:23;13.40;99.90
3275;DHT22;1649;53.672;10.064;2023-08-31T01:42:51;13.30;99.90
3275;DHT22;1649;53.672;10.064;2023-08-31T01:45:20;13.30;99.90
3275;DHT22;1649;53.672;10.064;2023-08-31T01:47:46;13.30;99.90
3275;DHT22;1649;53.672;10.064;2023-08-31T01:50:12;13.20;99.90
3275;DHT22;1649;53.672;10.064;2023-08-31T01:52:38;13.30;99.90
3275;DHT22;1649;53.672;10.064;2023-08-31T01:55:04;13.30;99.90
3275;DHT22;1649;53.672;10.064;2023-08-31T01:57:31;13.30;99.90
3275;DHT22;1649;53.672;10.064;2023-08-31T01:59:57;13.30;99.90
3275;DHT22;1649;53.672;10.064;2023-08-31T02:02:22;13.10;99.90
3275;DHT22;1649;53.672;10.064;2023-08-31T02:04:48;13.20;99.90
3275;DHT22;1649;53.672;10.064;2023-08-31T02:07:13;13.10;99.90
3275;DHT22;1649;53.672;10.064;2023-08-31T02:09:39;13.00;99.90
3275;DHT22;1649;53.672;10.064;2023-08-31T02:12:04;13.00;99.90
3275;DHT22;1649;53.672;10.064;2023-08-31T02:14:30;12.90;99.90
3275;DHT22;1649;53.672;10.064;2023-08-31T02:16:56;12.90;99.90
3275;DHT22;1649;53.672;10.064;2023-08-31T02:19:21;12.80;99.90
3275;DHT22;1649;53.672;10.064;2023-08-31T02:21:47;12.80;99.90
3275;DHT22;1649;53.672;10.064;2023-08-31T02:24:12;12.80;99.90
3275;DHT22;1649;53.672;10.064;2023-08-31T02:26:38;12.70;99.90
3275;DHT22;1649;53.672;10.064;2023-08-31T02:29:04;12.70;99.90
3275;DHT22;1649;53.672;10.064;2023-08-31T02:31:29;12.60;99.90
3275;DHT22;1649;53.672;10.064;2023-08-31T02:33:54;12.60;99.90
3275;DHT22;1649;53.672;10.064;2023-08-31T02:36:20;12.50;99.90
3275;DHT22;1649;53.672;10.064;2023-08-31T02:38:46;12.50;99.90
3275;DHT22;1649;53.672;10.064;2023-08-31T02:41:12;12.50;99.90
3275;DHT22;1649;53.672;10.064;2023-08-31T02:43:38;12.40;99.90
3275;DHT22;1649;53.672;10.064;2023-08-31T02:46:04;12.50;99.90
3275;DHT22;1649;53.672;10.064;2023-08-31T02:48:32;12.50;99.90
3275;DHT22;1649;53.672;10.064;2023-08-31T02:50:58;12.40;99.90
3275;DHT22;1649;53.672;10.064;2023-08-31T02:53:26;12.30;99.90
3275;DHT22;1649;53.672;10.064;2023-08-31T02:55:52;12.30;99.90
3275;DHT22;1649;53.672;10.064;2023-08-31T02:58:17;12.40;99.90
3275;DHT22;1649;53.672;10.064;2023-08-31T03:00:44;12.40;99.90
3275;DHT22;1649;53.672;10.064;2023-08-31T03:03:13;12.40;99.90
3275;DHT22;1649;53.672;10.064;2023-08-31T03:05:39;12.40;99.90
3275;DHT22;1649;53.672;10.064;2023-08-31T03:08:05;12.40;99.90
3275;DHT22;1649;53.672;10.064;2023-08-31T03:10:30;12.30;99.90
3275;DHT22;1649;53.672;10.064;2023-08-31T03:12:56;12.30;99.90
3275;DHT22;1649;53.672;10.064;2023-08-31T03:15:21;12.20;99.90
3275;DHT22;1649;53.672;10.064;2023-08-31T03:17:47;12.30;99.90
3275;DHT22;1649;53.672;10.064;2023-08-31T03:20:12;12.20;99.90
3275;DHT22;1649;53.672;10.064;2023-08-31T03:22:38;12.20;99.90
3275;DHT22;1649;53.672;10.064;2023-08-31T03:25:03;12.10;99.90
3275;DHT22;1649;53.672;10.064;2023-08-31T03:27:29;12.20;99.90
3275;DHT22;1649;53.672;10.064;2023-08-31T03:29:54;12.10;99.90
3275;DHT22;1649;53.672;10.064;2023-08-31T03:32:20;12.10;99.90
3275;DHT22;1649;53.672;10.064;2023-08-31T03:34:45;12.10;99.90
3275;DHT22;1649;53.672;10.064;2023-08-31T03:37:11;12.10;99.90
3275;DHT22;1649;53.672;10.064;2023-08-31T03:39:36;12.00;99.90
3275;DHT22;1649;53.672;10.064;2023-08-31T03:42:02;11.90;99.90
3275;DHT22;1649;53.672;10.064;2023-08-31T03:44:28;11.90;99.90
3275;DHT22;1649;53.672;10.064;2023-08-31T03:46:54;11.80;99.90
3275;DHT22;1649;53.672;10.064;2023-08-31T03:49:19;11.80;99.90
3275;DHT22;1649;53.672;10.064;2023-08-31T03:51:45;11.80;99.90
3275;DHT22;1649;53.672;10.064;2023-08-31T03:54:10;11.80;99.90
3275;DHT22;1649;53.672;10.064;2023-08-31T03:56:38;11.70;99.90
3275;DHT22;1649;53.672;10.064;2023-08-31T03:59:03;11.70;99.90
3275;DHT22;1649;53.672;10.064;2023-08-31T04:01:29;11.70;99.90
3275;DHT22;1649;53.672;10.064;2023-08-31T04:03:55;11.70;99.90
3275;DHT22;1649;53.672;10.064;2023-08-31T04:06:21;11.70;99.90
3275;DHT22;1649;53.672;10.064;2023-08-31T04:08:47;11.70;99.90
3275;DHT22;1649;53.672;10.064;2023-08-31T04:11:12;11.60;99.90
3275;DHT22;1649;53.672;10.064;2023-08-31T04:13:38;11.60;99.90
3275;DHT22;1649;53.672;10.064;2023-08-31T04:16:03;11.60;99.90
3275;DHT22;1649;53.672;10.064;2023-08-31T04:18:29;11.70;99.90
3275;DHT22;1649;53.672;10.064;2023-08-31T04:20:54;11.70;99.90
3275;DHT22;1649;53.672;10.064;2023-08-31T04:23:21;11.70;99.90
3275;DHT22;1649;53.672;10.064;2023-08-31T04:25:46;11.70;99.90
3275;DHT22;1649;53.672;10.064;2023-08-31T04:28:13;11.70;99.90
3275;DHT22;1649;53.672;10.064;2023-08-31T04:30:39;11.60;99.90
3275;DHT22;1649;53.672;10.064;2023-08-31T04:33:06;11.60;99.90
3275;DHT22;1649;53.672;10.064;2023-08-31T04:35:32;11.50;99.90
3275;DHT22;1649;53.672;10.064;2023-08-31T04:37:58;11.50;99.90
3275;DHT22;1649;53.672;10.064;2023-08-31T04:40:23;11.40;99.90
3275;DHT22;1649;53.672;10.064;2023-08-31T04:42:50;11.50;99.90
3275;DHT22;1649;53.672;10.064;2023-08-31T04:45:16;11.50;99.90
3275;DHT22;1649;53.672;10.064;2023-08-31T04:47:42;11.50;99.90
3275;DHT22;1649;53.672;10.064;2023-08-31T04:50:08;11.50;99.90
3275;DHT22;1649;53.672;10.064;2023-08-31T04:52:34;11.60;99.90
3275;DHT22;1649;53.672;10.064;2023-08-31T04:55:05;11.60;99.90
3275;DHT22;1649;53.672;10.064;2023-08-31T04:57:32;11.60;99.90
3275;DHT22;1649;53.672;10.064;2023-08-31T04:59:58;11.60;99.90
3275;DHT22;1649;53.672;10.064;2023-08-31T05:02:23;11.60;99.90
3275;DHT22;1649;53.672;10.064;2023-08-31T05:04:49;11.60;99.90
3275;DHT22;1649;53.672;10.064;2023-08-31T05:07:14;11.70;99.90
3275;DHT22;1649;53.672;10.064;2023-08-31T05:09:40;11.70;99.90
3275;DHT22;1649;53.672;10.064;2023-08-31T05:12:05;11.60;99.90
3275;DHT22;1649;53.672;10.064;2023-08-31T05:14:32;11.50;99.90
3275;DHT22;1649;53.672;10.064;2023-08-31T05:17:00;11.60;99.90
3275;DHT22;1649;53.672;10.064;2023-08-31T05:19:26;11.60;99.90
3275;DHT22;1649;53.672;10.064;2023-08-31T05:21:51;11.50;99.90
3275;DHT22;1649;53.672;10.064;2023-08-31T05:24:16;11.50;99.90
3275;DHT22;1649;53.672;10.064;2023-08-31T05:26:42;11.40;99.90
3275;DHT22;1649;53.672;10.064;2023-08-31T05:29:08;11.50;99.90
3275;DHT22;1649;53.672;10.064;2023-08-31T05:31:33;11.60;99.90
3275;DHT22;1649;53.672;10.064;2023-08-31T05:33:59;11.60;99.90
3275;DHT22;1649;53.672;10.064;2023-08-31T05:36:24;11.60;99.90
3275;DHT22;1649;53.672;10.064;2023-08-31T05:38:52;11.70;99.90
3275;DHT22;1649;53.672;10.064;2023-08-31T05:41:18;11.70;99.90
3275;DHT22;1649;53.672;10.064;2023-08-31T05:43:43;11.70;99.90
3275;DHT22;1649;53.672;10.064;2023-08-31T05:46:09;11.80;99.90
3275;DHT22;1649;53.672;10.064;2023-08-31T05:48:35;11.80;99.90
3275;DHT22;1649;53.672;10.064;2023-08-31T05:51:01;11.80;99.90
3275;DHT22;1649;53.672;10.064;2023-08-31T05:53:31;11.80;99.90
3275;DHT22;1649;53.672;10.064;2023-08-31T05:55:58;11.90;99.90
3275;DHT22;1649;53.672;10.064;2023-08-31T05:58:36;12.00;99.90
3275;DHT22;1649;53.672;10.064;2023-08-31T06:01:05;12.10;99.90
3275;DHT22;1649;53.672;10.064;2023-08-31T06:03:31;12.10;99.90
3275;DHT22;1649;53.672;10.064;2023-08-31T06:05:58;12.10;99.90
3275;DHT22;1649;53.672;10.064;2023-08-31T06:08:24;12.20;99.90
3275;DHT22;1649;53.672;10.064;2023-08-31T06:10:50;12.20;99.90
3275;DHT22;1649;53.672;10.064;2023-08-31T06:13:16;12.20;99.90
3275;DHT22;1649;53.672;10.064;2023-08-31T06:15:42;12.30;99.90
3275;DHT22;1649;53.672;10.064;2023-08-31T06:18:07;12.40;99.90
3275;DHT22;1649;53.672;10.064;2023-08-31T06:20:33;12.50;99.90
3275;DHT22;1649;53.672;10.064;2023-08-31T06:22:59;12.80;99.90
3275;DHT22;1649;53.672;10.064;2023-08-31T06:25:25;13.20;99.90
3275;DHT22;1649;53.672;10.064;2023-08-31T06:27:50;13.70;99.90
3275;DHT22;1649;53.672;10.064;2023-08-31T06:30:17;14.00;99.90
3275;DHT22;1649;53.672;10.064;2023-08-31T06:32:46;14.10;99.90
3275;DHT22;1649;53.672;10.064;2023-08-31T06:35:12;14.40;99.90
3275;DHT22;1649;53.672;10.064;2023-08-31T06:37:39;14.90;99.90
3275;DHT22;1649;53.672;10.064;2023-08-31T06:40:06;15.20;99.90
3275;DHT22;1649;53.672;10.064;2023-08-31T06:42:31;15.50;99.90
3275;DHT22;1649;53.672;10.064;2023-08-31T06:44:57;15.70;99.90
3275;DHT22;1649;53.672;10.064;2023-08-31T06:47:22;16.30;99.90
3275;DHT22;1649;53.672;10.064;2023-08-31T06:49:49;17.40;99.90
3275;DHT22;1649;53.672;10.064;2023-08-31T06:52:14;18.10;99.90
3275;DHT22;1649;53.672;10.064;2023-08-31T06:54:41;18.80;99.90
3275;DHT22;1649;53.672;10.064;2023-08-31T06:57:07;19.40;99.90
3275;DHT22;1649;53.672;10.064;2023-08-31T06:59:33;19.70;99.90
3275;DHT22;1649;53.672;10.064;2023-08-31T07:01:58;20.10;99.90
3275;DHT22;1649;53.672;10.064;2023-08-31T07:04:24;20.20;99.90
3275;DHT22;1649;53.672;10.064;2023-08-31T07:06:49;20.50;99.90
3275;DHT22;1649;53.672;10.064;2023-08-31T07:09:15;20.30;99.90
3275;DHT22;1649;53.672;10.064;2023-08-31T07:11:41;20.40;99.90
3275;DHT22;1649;53.672;10.064;2023-08-31T07:14:07;20.10;99.90
3275;DHT22;1649;53.672;10.064;2023-08-31T07:16:32;20.20;99.90
3275;DHT22;1649;53.672;10.064;2023-08-31T07:18:58;19.40;99.90
3275;DHT22;1649;53.672;10.064;2023-08-31T07:21:23;18.80;99.90
3275;DHT22;1649;53.672;10.064;2023-08-31T07:23:49;18.60;99.90
3275;DHT22;1649;53.672;10.064;2023-08-31T07:26:14;18.40;99.90
3275;DHT22;1649;53.672;10.064;2023-08-31T07:28:41;18.00;99.90
3275;DHT22;1649;53.672;10.064;2023-08-31T07:31:07;17.60;99.90
3275;DHT22;1649;53.672;10.064;2023-08-31T07:33:34;17.30;99.90
3275;DHT22;1649;53.672;10.064;2023-08-31T07:36:02;17.00;99.90
3275;DHT22;1649;53.672;10.064;2023-08-31T07:38:30;16.60;99.90
3275;DHT22;1649;53.672;10.064;2023-08-31T07:40:56;16.30;99.90
3275;DHT22;1649;53.672;10.064;2023-08-31T07:43:21;16.30;99.90
3275;DHT22;1649;53.672;10.064;2023-08-31T07:45:47;16.80;99.90
3275;DHT22;1649;53.672;10.064;2023-08-31T07:48:13;17.40;99.90
3275;DHT22;1649;53.672;10.064;2023-08-31T07:50:41;18.10;99.90
3275;DHT22;1649;53.672;10.064;2023-08-31T07:53:06;18.90;99.90
3275;DHT22;1649;53.672;10.064;2023-08-31T07:55:33;19.20;99.90
3275;DHT22;1649;53.672;10.064;2023-08-31T07:57:58;19.80;99.90
3275;DHT22;1649;53.672;10.064;2023-08-31T08:00:24;20.40;99.90
3275;DHT22;1649;53.672;10.064;2023-08-31T08:02:49;20.60;99.90
3275;DHT22;1649;53.672;10.064;2023-08-31T08:05:15;21.20;98.20
3275;DHT22;1649;53.672;10.064;2023-08-31T08:07:40;21.40;98.50
3275;DHT22;1649;53.672;10.064;2023-08-31T08:10:08;21.80;98.40
3275;DHT22;1649;53.672;10.064;2023-08-31T08:12:41;22.10;99.10
3275;DHT22;1649;53.672;10.064;2023-08-31T08:15:10;21.80;95.40
3275;DHT22;1649;53.672;10.064;2023-08-31T08:17:36;21.80;96.60
3275;DHT22;1649;53.672;10.064;2023-08-31T08:20:02;21.70;97.20
3275;DHT22;1649;53.672;10.064;2023-08-31T08:22:28;22.00;97.40
3275;DHT22;1649;53.672;10.064;2023-08-31T08:24:54;22.50;95.50
3275;DHT22;1649;53.672;10.064;2023-08-31T08:27:19;22.70;96.20
3275;DHT22;1649;53.672;10.064;2023-08-31T08:29:46;22.90;94.50
3275;DHT22;1649;53.672;10.064;2023-08-31T08:32:12;22.70;93.90
3275;DHT22;1649;53.672;10.064;2023-08-31T08:34:38;22.10;94.10
3275;DHT22;1649;53.672;10.064;2023-08-31T08:37:03;21.60;95.30
3275;DHT22;1649;53.672;10.064;2023-08-31T08:39:29;21.40;94.90
3275;DHT22;1649;53.672;10.064;2023-08-31T08:42:00;21.20;96.60
3275;DHT22;1649;53.672;10.064;2023-08-31T08:44:32;20.80;97.40
3275;DHT22;1649;53.672;10.064;2023-08-31T08:46:59;20.60;99.50
3275;DHT22;1649;53.672;10.064;2023-08-31T08:49:30;21.00;99.60
3275;DHT22;1649;53.672;10.064;2023-08-31T08:51:56;21.40;98.00
3275;DHT22;1649;53.672;10.064;2023-08-31T08:54:22;21.40;96.30
3275;DHT22;1649;53.672;10.064;2023-08-31T08:56:48;22.00;96.40
3275;DHT22;1649;53.672;10.064;2023-08-31T08:59:14;22.10;95.90
3275;DHT22;1649;53.672;10.064;2023-08-31T09:01:39;22.10;95.90
3275;DHT22;1649;53.672;10.064;2023-08-31T09:04:05;22.10;95.30
3275;DHT22;1649;53.672;10.064;2023-08-31T09:06:32;22.50;99.90
3275;DHT22;1649;53.672;10.064;2023-08-31T09:08:58;23.20;99.00
3275;DHT22;1649;53.672;10.064;2023-08-31T09:11:24;23.80;95.00
3275;DHT22;1649;53.672;10.064;2023-08-31T09:13:51;23.70;93.00
3275;DHT22;1649;53.672;10.064;2023-08-31T09:16:27;23.40;92.00
3275;DHT22;1649;53.672;10.064;2023-08-31T09:18:54;23.30;92.50
3275;DHT22;1649;53.672;10.064;2023-08-31T09:21:19;23.10;94.90
3275;DHT22;1649;53.672;10.064;2023-08-31T09:23:56;23.50;92.10
3275;DHT22;1649;53.672;10.064;2023-08-31T09:26:23;23.60;95.50
3275;DHT22;1649;53.672;10.064;2023-08-31T09:28:49;23.70;92.60
3275;DHT22;1649;53.672;10.064;2023-08-31T09:31:14;23.60;92.90
3275;DHT22;1649;53.672;10.064;2023-08-31T09:33:49;22.50;92.50
3275;DHT22;1649;53.672;10.064;2023-08-31T09:36:15;21.60;94.00
3275;DHT22;1649;53.672;10.064;2023-08-31T09:38:41;21.50;98.00
3275;DHT22;1649;53.672;10.064;2023-08-31T09:41:07;21.40;98.20
3275;DHT22;1649;53.672;10.064;2023-08-31T09:43:33;21.30;99.90
3275;DHT22;1649;53.672;10.064;2023-08-31T09:45:59;21.50;98.20
3275;DHT22;1649;53.672;10.064;2023-08-31T09:48:26;21.90;96.10
3275;DHT22;1649;53.672;10.064;2023-08-31T09:50:52;22.10;97.00
3275;DHT22;1649;53.672;10.064;2023-08-31T09:53:20;22.30;98.70
3275;DHT22;1649;53.672;10.064;2023-08-31T09:55:47;22.30;96.70
3275;DHT22;1649;53.672;10.064;2023-08-31T09:58:17;22.10;94.10
3275;DHT22;1649;53.672;10.064;2023-08-31T10:00:43;22.10;95.90
3275;DHT22;1649;53.672;10.064;2023-08-31T10:03:09;22.20;96.00
3275;DHT22;1649;53.672;10.064;2023-08-31T10:05:39;21.90;95.90
3275;DHT22;1649;53.672;10.064;2023-08-31T10:08:05;22.00;95.40
3275;DHT22;1649;53.672;10.064;2023-08-31T10:10:33;21.50;95.60
3275;DHT22;1649;53.672;10.064;2023-08-31T10:12:59;20.80;98.10
3275;DHT22;1649;53.672;10.064;2023-08-31T10:15:36;20.40;99.50
3275;DHT22;1649;53.672;10.064;2023-08-31T10:18:03;19.90;99.30
3275;DHT22;1649;53.672;10.064;2023-08-31T10:20:29;19.60;99.90
3275;DHT22;1649;53.672;10.064;2023-08-31T10:23:02;19.50;99.90
3275;DHT22;1649;53.672;10.064;2023-08-31T10:28:20;19.60;99.90
3275;DHT22;1649;53.672;10.064;2023-08-31T10:31:02;20.20;99.90
3275;DHT22;1649;53.672;10.064;2023-08-31T10:33:34;20.90;98.60
3275;DHT22;1649;53.672;10.064;2023-08-31T10:35:59;21.40;98.20
3275;DHT22;1649;53.672;10.064;2023-08-31T10:38:28;21.20;97.10
3275;DHT22;1649;53.672;10.064;2023-08-31T10:41:03;20.90;99.50
3275;DHT22;1649;53.672;10.064;2023-08-31T10:43:49;20.40;99.90
3275;DHT22;1649;53.672;10.064;2023-08-31T10:49:01;20.10;99.90
3275;DHT22;1649;53.672;10.064;2023-08-31T10:51:32;20.00;99.90
3275;DHT22;1649;53.672;10.064;2023-08-31T10:54:13;19.90;99.90
3275;DHT22;1649;53.672;10.064;2023-08-31T10:59:53;19.80;99.90
3275;DHT22;1649;53.672;10.064;2023-08-31T11:02:38;19.80;99.30
3275;DHT22;1649;53.672;10.064;2023-08-31T11:05:17;19.50;99.90
3275;DHT22;1649;53.672;10.064;2023-08-31T11:07:44;19.20;99.90
3275;DHT22;1649;53.672;10.064;2023-08-31T11:10:23;19.00;99.90
3275;DHT22;1649;53.672;10.064;2023-08-31T11:12:53;18.90;99.90
3275;DHT22;1649;53.672;10.064;2023-08-31T11:15:24;19.20;99.90
3275;DHT22;1649;53.672;10.064;2023-08-31T11:17:51;20.10;99.90
3275;DHT22;1649;53.672;10.064;2023-08-31T11:20:21;20.70;99.10
3275;DHT22;1649;53.672;10.064;2023-08-31T11:22:49;21.20;97.00
3275;DHT22;1649;53.672;10.064;2023-08-31T11:25:16;21.50;98.40
3275;DHT22;1649;53.672;10.064;2023-08-31T11:27:52;21.70;98.00
3275;DHT22;1649;53.672;10.064;2023-08-31T11:30:18;21.70;98.90
3275;DHT22;1649;53.672;10.064;2023-08-31T11:32:49;21.50;96.70
3275;DHT22;1649;53.672;10.064;2023-08-31T11:35:15;21.00;97.90
3275;DHT22;1649;53.672;10.064;2023-08-31T11:37:43;21.00;98.70
3275;DHT22;1649;53.672;10.064;2023-08-31T11:40:09;21.30;99.90
3275;DHT22;1649;53.672;10.064;2023-08-31T11:42:34;21.50;99.50
3275;DHT22;1649;53.672;10.064;2023-08-31T11:45:00;21.60;98.60
3275;DHT22;1649;53.672;10.064;2023-08-31T11:47:26;21.90;94.70
3275;DHT22;1649;53.672;10.064;2023-08-31T11:49:52;21.80;95.40
3275;DHT22;1649;53.672;10.064;2023-08-31T11:52:18;21.60;96.10
3275;DHT22;1649;53.672;10.064;2023-08-31T11:54:44;21.30;97.60
3275;DHT22;1649;53.672;10.064;2023-08-31T11:57:11;21.30;99.10
3275;DHT22;1649;53.672;10.064;2023-08-31T11:59:38;21.70;98.90
3275;DHT22;1649;53.672;10.064;2023-08-31T12:02:08;21.90;96.10
3275;DHT22;1649;53.672;10.064;2023-08-31T12:04:41;21.40;94.70
3275;DHT22;1649;53.672;10.064;2023-08-31T12:07:07;21.30;95.50
3275;DHT22;1649;53.672;10.064;2023-08-31T12:09:33;21.40;96.40
3275;DHT22;1649;53.672;10.064;2023-08-31T12:11:59;21.30;95.90
3275;DHT22;1649;53.672;10.064;2023-08-31T12:14:26;21.20;95.50
3275;DHT22;1649;53.672;10.064;2023-08-31T12:17:00;21.00;96.20
3275;DHT22;1649;53.672;10.064;2023-08-31T12:19:31;20.70;95.50
3275;DHT22;1649;53.672;10.064;2023-08-31T12:21:57;20.30;94.70
3275;DHT22;1649;53.672;10.064;2023-08-31T12:24:23;20.10;96.30
3275;DHT22;1649;53.672;10.064;2023-08-31T12:26:49;20.10;97.00
3275;DHT22;1649;53.672;10.064;2023-08-31T12:29:16;20.30;99.90
3275;DHT22;1649;53.672;10.064;2023-08-31T12:31:42;20.60;97.60
3275;DHT22;1649;53.672;10.064;2023-08-31T12:34:09;21.20;98.00
3275;DHT22;1649;53.672;10.064;2023-08-31T12:36:35;21.20;95.30
3275;DHT22;1649;53.672;10.064;2023-08-31T12:39:09;21.30;98.20
3275;DHT22;1649;53.672;10.064;2023-08-31T12:41:39;21.40;96.00
3275;DHT22;1649;53.672;10.064;2023-08-31T12:44:06;21.00;94.70
3275;DHT22;1649;53.672;10.064;2023-08-31T12:46:32;20.90;95.50
3275;DHT22;1649;53.672;10.064;2023-08-31T12:48:59;20.60;93.80
3275;DHT22;1649;53.672;10.064;2023-08-31T12:51:25;20.30;94.40
3275;DHT22;1649;53.672;10.064;2023-08-31T12:53:50;20.00;95.90
3275;DHT22;1649;53.672;10.064;2023-08-31T12:56:16;19.90;95.10
3275;DHT22;1649;53.672;10.064;2023-08-31T12:58:51;19.50;94.20
3275;DHT22;1649;53.672;10.064;2023-08-31T13:01:18;19.00;94.10
3275;DHT22;1649;53.672;10.064;2023-08-31T13:03:44;18.60;94.80
3275;DHT22;1649;53.672;10.064;2023-08-31T13:06:10;18.10;96.00
3275;DHT22;1649;53.672;10.064;2023-08-31T13:08:35;17.80;95.90
3275;DHT22;1649;53.672;10.064;2023-08-31T13:11:01;17.60;96.80
3275;DHT22;1649;53.672;10.064;2023-08-31T13:13:26;17.50;97.20
3275;DHT22;1649;53.672;10.064;2023-08-31T13:15:52;17.40;99.90
3275;DHT22;1649;53.672;10.064;2023-08-31T13:18:17;17.10;99.90
3275;DHT22;1649;53.672;10.064;2023-08-31T13:20:53;17.10;99.90
3275;DHT22;1649;53.672;10.064;2023-08-31T13:23:19;17.30;99.90
3275;DHT22;1649;53.672;10.064;2023-08-31T13:25:45;17.20;99.90
3275;DHT22;1649;53.672;10.064;2023-08-31T13:28:11;17.30;99.90
3275;DHT22;1649;53.672;10.064;2023-08-31T13:30:37;17.50;99.90
3275;DHT22;1649;53.672;10.064;2023-08-31T13:33:02;17.70;99.90
3275;DHT22;1649;53.672;10.064;2023-08-31T13:35:29;17.90;99.90
3275;DHT22;1649;53.672;10.064;2023-08-31T13:37:55;17.90;99.90
3275;DHT22;1649;53.672;10.064;2023-08-31T13:40:21;18.10;99.90
3275;DHT22;1649;53.672;10.064;2023-08-31T13:42:57;18.20;99.90
3275;DHT22;1649;53.672;10.064;2023-08-31T13:45:26;18.50;99.90
3275;DHT22;1649;53.672;10.064;2023-08-31T13:47:52;18.80;99.90
3275;DHT22;1649;53.672;10.064;2023-08-31T13:50:18;19.10;99.20
3275;DHT22;1649;53.672;10.064;2023-08-31T13:52:44;19.30;99.90
3275;DHT22;1649;53.672;10.064;2023-08-31T13:55:09;19.30;99.40
3275;DHT22;1649;53.672;10.064;2023-08-31T13:57:35;19.60;99.10
3275;DHT22;1649;53.672;10.064;2023-08-31T14:00:01;19.90;99.80
3275;DHT22;1649;53.672;10.064;2023-08-31T14:02:26;20.00;97.50
3275;DHT22;1649;53.672;10.064;2023-08-31T14:04:53;20.20;97.10
3275;DHT22;1649;53.672;10.064;2023-08-31T14:07:19;20.00;95.50
3275;DHT22;1649;53.672;10.064;2023-08-31T14:09:44;19.70;96.60
3275;DHT22;1649;53.672;10.064;2023-08-31T14:12:10;19.70;97.70
3275;DHT22;1649;53.672;10.064;2023-08-31T14:14:35;19.70;96.80
3275;DHT22;1649;53.672;10.064;2023-08-31T14:17:01;19.60;96.70
3275;DHT22;1649;53.672;10.064;2023-08-31T14:19:27;19.50;97.30
3275;DHT22;1649;53.672;10.064;2023-08-31T14:21:52;19.50;97.40
3275;DHT22;1649;53.672;10.064;2023-08-31T14:24:18;19.50;99.10
3275;DHT22;1649;53.672;10.064;2023-08-31T14:26:44;19.70;99.90
3275;DHT22;1649;53.672;10.064;2023-08-31T14:29:10;20.00;98.80
3275;DHT22;1649;53.672;10.064;2023-08-31T14:31:36;20.20;98.70
3275;DHT22;1649;53.672;10.064;2023-08-31T14:34:01;19.80;97.50
3275;DHT22;1649;53.672;10.064;2023-08-31T14:36:27;19.50;99.00
3275;DHT22;1649;53.672;10.064;2023-08-31T14:38:53;19.30;99.90
3275;DHT22;1649;53.672;10.064;2023-08-31T14:41:18;19.20;99.90
3275;DHT22;1649;53.672;10.064;2023-08-31T14:43:44;19.10;99.90
3275;DHT22;1649;53.672;10.064;2023-08-31T14:46:09;19.10;99.90
3275;DHT22;1649;53.672;10.064;2023-08-31T14:48:34;19.10;99.90
3275;DHT22;1649;53.672;10.064;2023-08-31T14:51:00;19.00;99.90
3275;DHT22;1649;53.672;10.064;2023-08-31T14:53:26;19.10;99.90
3275;DHT22;1649;53.672;10.064;2023-08-31T14:55:52;19.10;99.90
3275;DHT22;1649;53.672;10.064;2023-08-31T14:58:18;19.20;99.90
3275;DHT22;1649;53.672;10.064;2023-08-31T15:00:44;19.30;99.90
3275;DHT22;1649;53.672;10.064;2023-08-31T15:03:10;19.30;99.90
3275;DHT22;1649;53.672;10.064;2023-08-31T15:05:36;19.30;99.90
3275;DHT22;1649;53.672;10.064;2023-08-31T15:08:04;19.30;99.90
3275;DHT22;1649;53.672;10.064;2023-08-31T15:10:29;19.30;99.90
3275;DHT22;1649;53.672;10.064;2023-08-31T15:12:55;19.20;99.90
3275;DHT22;1649;53.672;10.064;2023-08-31T15:15:25;19.00;99.90
3275;DHT22;1649;53.672;10.064;2023-08-31T15:17:51;18.90;99.90
3275;DHT22;1649;53.672;10.064;2023-08-31T15:20:16;18.80;99.90
3275;DHT22;1649;53.672;10.064;2023-08-31T15:22:42;18.70;99.90
3275;DHT22;1649;53.672;10.064;2023-08-31T15:25:08;18.60;99.90
3275;DHT22;1649;53.672;10.064;2023-08-31T15:27:33;18.60;99.90
3275;DHT22;1649;53.672;10.064;2023-08-31T15:29:59;18.60;99.90
3275;DHT22;1649;53.672;10.064;2023-08-31T15:32:24;18.60;99.90
3275;DHT22;1649;53.672;10.064;2023-08-31T15:34:49;18.60;99.90
3275;DHT22;1649;53.672;10.064;2023-08-31T15:37:15;18.60;99.90
3275;DHT22;1649;53.672;10.064;2023-08-31T15:39:40;18.50;99.90
3275;DHT22;1649;53.672;10.064;2023-08-31T15:42:06;18.40;99.90
3275;DHT22;1649;53.672;10.064;2023-08-31T15:44:31;18.30;99.90
3275;DHT22;1649;53.672;10.064;2023-08-31T15:46:59;18.20;99.90
3275;DHT22;1649;53.672;10.064;2023-08-31T15:49:25;18.00;99.90
3275;DHT22;1649;53.672;10.064;2023-08-31T15:51:51;17.80;99.90